Time;durP1;ratioP1;P1;durP2;ratioP2;P2;SDS_P1;SDS_P2;PMS_P1;PMS_P2;Temp;Humidity;BMP_temperature;BMP_pressure;BME280_temperature;BME280_humidity;BME280_pressure;Samples;Min_cycle;Max_cycle;Signal;HPM_P1;HPM_P2
2023/06/14 00:01:31;;;;;;;9.05;2.03;;;;;;;;;;4919646;29;20047;-88
2023/06/14 00:04:16;;;;;;;4.95;1.92;;;;;;;;;;4919725;29;20527;-89
2023/06/14 00:07:01;;;;;;;6.03;1.73;;;;;;;;;;4905083;29;20100;-88
2023/06/14 00:09:46;;;;;;;3.45;1.65;;;;;;;;;;4919408;29;20071;-91
2023/06/14 00:12:31;;;;;;;8.15;1.85;;;;;;;;;;4905301;29;20124;-88
2023/06/14 00:15:16;;;;;;;6.40;2.10;;;;;;;;;;4918353;29;20047;-88
2023/06/14 00:18:01;;;;;;;7.13;1.70;;;;;;;;;;4919163;29;20457;-88
2023/06/14 00:20:46;;;;;;;6.05;1.70;;;;;;;;;;4919262;29;20167;-92
2023/06/14 00:23:30;;;;;;;4.07;1.90;;;;;;;;;;4918162;29;20055;-88
2023/06/14 00:26:15;;;;;;;5.07;1.88;;;;;;;;;;4919211;29;20120;-89
2023/06/14 00:29:00;;;;;;;4.57;1.75;;;;;;;;;;4918051;29;20092;-88
2023/06/14 00:31:44;;;;;;;10.15;2.95;;;;;;;;;;4919029;29;20043;-88
2023/06/14 00:34:29;;;;;;;3.97;1.65;;;;;;;;;;4919066;29;20046;-88
2023/06/14 00:37:13;;;;;;;4.50;2.00;;;;;;;;;;4919297;29;20385;-88
2023/06/14 00:39:58;;;;;;;4.22;1.73;;;;;;;;;;4917381;29;20213;-88
2023/06/14 00:42:43;;;;;;;4.70;1.50;;;;;;;;;;4917916;29;20184;-88
2023/06/14 00:45:27;;;;;;;4.65;1.80;;;;;;;;;;4917735;29;20551;-88
2023/06/14 00:48:12;;;;;;;5.95;1.77;;;;;;;;;;4918659;29;20047;-88
2023/06/14 00:50:57;;;;;;;5.55;1.70;;;;;;;;;;4918525;29;20120;-88
2023/06/14 00:53:46;;;;;;;3.95;1.48;;;;;;;;;;4891232;29;20063;-88
2023/06/14 00:56:31;;;;;;;6.40;2.13;;;;;;;;;;4905092;29;20043;-88
2023/06/14 00:59:16;;;;;;;4.97;2.00;;;;;;;;;;4918542;29;20039;-89
2023/06/14 01:02:01;;;;;;;2.72;1.70;;;;;;;;;;4891220;29;20175;-88
2023/06/14 01:04:50;;;;;;;3.83;1.65;;;;;;;;;;4904461;29;20136;-88
2023/06/14 01:07:43;;;;;;;4.85;1.77;;;;;;;;;;4917673;29;20072;-88
2023/06/14 01:10:47;;;;;;;5.22;1.58;;;;;;;;;;4917484;29;20181;-88
2023/06/14 01:13:36;;;;;;;8.48;1.80;;;;;;;;;;4918489;29;20051;-89
2023/06/14 01:16:21;;;;;;;7.18;2.15;;;;;;;;;;4917504;29;20087;-88
2023/06/14 01:19:08;;;;;;;6.22;2.35;;;;;;;;;;4890698;29;20099;-88
2023/06/14 01:21:53;;;;;;;5.60;2.15;;;;;;;;;;4917320;29;20084;-91
2023/06/14 01:24:45;;;;;;;5.35;2.35;;;;;;;;;;4917231;29;20050;-89
2023/06/14 01:27:32;;;;;;;4.32;1.95;;;;;;;;;;4917375;29;20095;-87
2023/06/14 01:30:17;;;;;;;6.25;2.15;;;;;;;;;;4917013;29;20139;-87
2023/06/14 01:33:02;;;;;;;4.13;2.10;;;;;;;;;;4917788;29;20047;-89
2023/06/14 01:35:51;;;;;;;7.13;2.17;;;;;;;;;;4917203;29;20610;-88
2023/06/14 01:38:37;;;;;;;7.38;2.83;;;;;;;;;;4917903;29;20046;-88
2023/06/14 01:41:22;;;;;;;4.53;2.33;;;;;;;;;;4916606;29;20132;-88
2023/06/14 01:44:07;;;;;;;6.22;2.22;;;;;;;;;;4903547;29;20054;-88
2023/06/14 01:46:52;;;;;;;3.88;1.77;;;;;;;;;;4917135;29;20054;-88
2023/06/14 01:49:37;;;;;;;5.50;2.03;;;;;;;;;;4903525;29;20043;-88
2023/06/14 01:52:22;;;;;;;4.00;2.13;;;;;;;;;;4917806;29;20047;-88
2023/06/14 01:55:07;;;;;;;5.78;2.83;;;;;;;;;;4903582;29;20047;-88
2023/06/14 01:57:52;;;;;;;4.25;2.25;;;;;;;;;;4903483;29;20124;-89
2023/06/14 02:00:37;;;;;;;5.88;2.33;;;;;;;;;;4917751;29;20054;-87
2023/06/14 02:03:23;;;;;;;9.80;2.47;;;;;;;;;;4917409;29;20126;-88
2023/06/14 02:06:07;;;;;;;5.95;2.53;;;;;;;;;;4917324;29;20055;-88
2023/06/14 02:08:52;;;;;;;4.20;1.83;;;;;;;;;;4917452;29;20050;-88
2023/06/14 02:11:39;;;;;;;9.38;2.30;;;;;;;;;;4890018;29;20071;-88
2023/06/14 02:14:24;;;;;;;7.85;2.15;;;;;;;;;;4917447;29;20051;-88
2023/06/14 02:17:08;;;;;;;3.95;2.67;;;;;;;;;;4903076;29;20107;-87
2023/06/14 02:19:53;;;;;;;4.00;2.10;;;;;;;;;;4917528;29;20055;-87
2023/06/14 02:22:37;;;;;;;4.30;2.08;;;;;;;;;;4917270;29;20544;-88
2023/06/14 02:25:22;;;;;;;6.13;2.03;;;;;;;;;;4917171;29;20416;-88
2023/06/14 02:28:06;;;;;;;4.18;2.92;;;;;;;;;;4902569;29;20070;-88
2023/06/14 02:30:51;;;;;;;6.40;2.15;;;;;;;;;;4917068;29;20067;-88
2023/06/14 02:33:35;;;;;;;5.15;2.00;;;;;;;;;;4916179;29;20094;-88
2023/06/14 02:36:20;;;;;;;24.45;3.35;;;;;;;;;;4916992;29;20047;-87
2023/06/14 02:39:04;;;;;;;5.03;2.22;;;;;;;;;;4902529;29;20043;-89
2023/06/14 02:41:50;;;;;;;4.43;1.77;;;;;;;;;;4902784;29;20457;-88
2023/06/14 02:44:35;;;;;;;7.72;1.90;;;;;;;;;;4916885;29;20051;-88
2023/06/14 02:47:20;;;;;;;6.70;2.63;;;;;;;;;;4916754;29;20092;-88
2023/06/14 02:50:05;;;;;;;5.97;2.38;;;;;;;;;;4916768;29;20043;-91
2023/06/14 02:52:50;;;;;;;5.35;2.20;;;;;;;;;;4902264;29;20039;-88
2023/06/14 02:55:39;;;;;;;5.80;2.30;;;;;;;;;;4916840;29;20088;-88
2023/06/14 02:58:24;;;;;;;4.88;2.53;;;;;;;;;;4916680;29;20043;-89
2023/06/14 03:01:12;;;;;;;9.70;2.35;;;;;;;;;;4889064;29;20548;-88
2023/06/14 03:03:57;;;;;;;5.15;2.28;;;;;;;;;;4920232;29;20059;-89
2023/06/14 03:06:44;;;;;;;4.28;1.95;;;;;;;;;;4919923;29;20473;-88
2023/06/14 03:09:28;;;;;;;4.63;2.85;;;;;;;;;;4920586;29;20039;-88
2023/06/14 03:12:14;;;;;;;4.35;2.33;;;;;;;;;;4906557;29;20456;-89
2023/06/14 03:15:04;;;;;;;6.15;2.50;;;;;;;;;;4919810;29;20082;-88
2023/06/14 03:17:49;;;;;;;4.75;2.20;;;;;;;;;;4907277;29;20039;-88
2023/06/14 03:20:33;;;;;;;5.65;2.30;;;;;;;;;;4906403;29;20047;-87
2023/06/14 03:23:18;;;;;;;5.15;2.13;;;;;;;;;;4906255;29;20046;-88
2023/06/14 03:26:02;;;;;;;5.85;2.15;;;;;;;;;;4906380;29;20072;-87
2023/06/14 03:28:48;;;;;;;4.93;2.10;;;;;;;;;;4920548;29;20091;-87
2023/06/14 03:31:33;;;;;;;5.43;2.28;;;;;;;;;;4906270;29;20047;-87
2023/06/14 03:34:18;;;;;;;4.70;2.35;;;;;;;;;;4920094;29;20488;-88
2023/06/14 03:37:02;;;;;;;5.35;2.10;;;;;;;;;;4919360;29;20043;-88
2023/06/14 03:39:47;;;;;;;6.47;2.40;;;;;;;;;;4906036;29;20051;-87
2023/06/14 03:42:32;;;;;;;4.00;2.17;;;;;;;;;;4892362;29;20103;-88
2023/06/14 03:45:17;;;;;;;4.38;2.17;;;;;;;;;;4918983;29;20051;-88
2023/06/14 03:48:02;;;;;;;12.60;2.53;;;;;;;;;;4920132;29;20095;-88
2023/06/14 03:50:47;;;;;;;5.60;2.58;;;;;;;;;;4919986;29;20043;-88
2023/06/14 03:53:31;;;;;;;6.15;2.50;;;;;;;;;;4892405;29;20540;-88
2023/06/14 03:56:16;;;;;;;4.60;2.30;;;;;;;;;;4919891;29;20115;-88
2023/06/14 03:59:00;;;;;;;4.80;2.50;;;;;;;;;;4919882;29;20043;-88
2023/06/14 04:01:46;;;;;;;5.22;2.10;;;;;;;;;;4918937;29;20059;-88
2023/06/14 04:04:31;;;;;;;5.15;2.80;;;;;;;;;;4891890;29;20063;-91
2023/06/14 04:07:19;;;;;;;10.18;2.80;;;;;;;;;;4919634;29;20092;-88
2023/06/14 04:10:04;;;;;;;6.13;2.60;;;;;;;;;;4919798;29;20059;-90
2023/06/14 04:12:49;;;;;;;4.38;2.13;;;;;;;;;;4891990;29;20042;-87
2023/06/14 04:15:33;;;;;;;9.13;2.65;;;;;;;;;;4919306;29;20036;-88
2023/06/14 04:18:19;;;;;;;4.70;2.33;;;;;;;;;;4919165;29;20171;-88
2023/06/14 04:21:04;;;;;;;4.72;2.20;;;;;;;;;;4918270;29;20040;-88
2023/06/14 04:23:52;;;;;;;5.70;2.42;;;;;;;;;;4918463;29;20064;-88
2023/06/14 04:26:37;;;;;;;3.83;2.30;;;;;;;;;;4919101;29;20119;-88
2023/06/14 04:29:23;;;;;;;3.13;1.77;;;;;;;;;;4904927;29;20127;-88
2023/06/14 04:32:10;;;;;;;4.80;2.20;;;;;;;;;;4919053;29;20495;-88
2023/06/14 04:34:54;;;;;;;5.68;2.80;;;;;;;;;;4919260;29;20043;-88
2023/06/14 04:37:41;;;;;;;9.02;2.90;;;;;;;;;;4919154;29;20079;-88
2023/06/14 04:40:26;;;;;;;6.07;2.45;;;;;;;;;;4891683;29;20130;-88
2023/06/14 04:43:15;;;;;;;4.97;2.25;;;;;;;;;;4919183;29;20047;-87
2023/06/14 04:46:01;;;;;;;6.68;2.92;;;;;;;;;;4919096;29;20139;-88
2023/06/14 04:48:47;;;;;;;5.05;2.50;;;;;;;;;;4918872;29;20039;-88
2023/06/14 04:51:33;;;;;;;7.93;3.05;;;;;;;;;;4918708;29;20047;-90
2023/06/14 04:54:18;;;;;;;4.03;2.25;;;;;;;;;;4918691;29;20047;-93
2023/06/14 04:57:03;;;;;;;5.47;2.67;;;;;;;;;;4919313;29;20080;-88
2023/06/14 04:59:47;;;;;;;12.50;2.95;;;;;;;;;;4919053;29;20050;-88
2023/06/14 05:02:32;;;;;;;8.90;3.33;;;;;;;;;;4917425;29;20039;-88
2023/06/14 05:05:17;;;;;;;3.85;2.30;;;;;;;;;;4917875;29;20400;-88
2023/06/14 05:08:02;;;;;;;9.85;2.45;;;;;;;;;;4917807;29;20549;-89
2023/06/14 05:10:46;;;;;;;4.80;2.47;;;;;;;;;;4891117;29;20047;-88
2023/06/14 05:13:32;;;;;;;7.40;2.70;;;;;;;;;;4918406;29;20110;-88
2023/06/14 05:16:19;;;;;;;4.88;2.40;;;;;;;;;;4904197;29;20047;-88
2023/06/14 05:19:06;;;;;;;7.05;2.40;;;;;;;;;;4917608;29;20043;-88
2023/06/14 05:21:52;;;;;;;4.97;2.30;;;;;;;;;;4904388;29;20504;-89
2023/06/14 05:24:37;;;;;;;5.35;2.92;;;;;;;;;;4917859;29;20099;-88
2023/06/14 05:27:22;;;;;;;7.95;2.72;;;;;;;;;;4916894;29;20124;-93
2023/06/14 05:30:07;;;;;;;5.57;2.47;;;;;;;;;;4903577;29;20087;-88
2023/06/14 05:32:52;;;;;;;8.23;2.60;;;;;;;;;;4903698;29;20412;-88
2023/06/14 05:35:37;;;;;;;6.82;2.90;;;;;;;;;;4916723;29;20047;-88
2023/06/14 05:38:22;;;;;;;6.28;3.30;;;;;;;;;;4917762;29;20039;-93
2023/06/14 05:41:07;;;;;;;8.43;2.90;;;;;;;;;;4903369;29;20404;-89
2023/06/14 05:43:51;;;;;;;8.63;3.10;;;;;;;;;;4917951;29;20110;-88
2023/06/14 05:46:36;;;;;;;5.88;2.45;;;;;;;;;;4903595;29;20046;-88
2023/06/14 05:49:20;;;;;;;7.82;3.10;;;;;;;;;;4903660;29;20064;-88
2023/06/14 05:52:05;;;;;;;4.70;2.50;;;;;;;;;;4903555;29;20082;-88
2023/06/14 05:54:50;;;;;;;6.53;2.70;;;;;;;;;;4903430;29;20047;-88
2023/06/14 05:57:35;;;;;;;8.02;2.60;;;;;;;;;;4890217;29;20146;-88
2023/06/14 06:00:20;;;;;;;8.93;2.78;;;;;;;;;;4917609;29;20106;-89
2023/06/14 06:03:07;;;;;;;6.85;2.92;;;;;;;;;;4917651;29;20091;-88
2023/06/14 06:05:52;;;;;;;7.57;2.85;;;;;;;;;;4890461;29;20090;-87
2023/06/14 06:08:37;;;;;;;5.93;2.53;;;;;;;;;;4917429;29;20091;-88
2023/06/14 06:11:21;;;;;;;9.52;3.15;;;;;;;;;;4903254;29;20046;-88
2023/06/14 06:14:05;;;;;;;8.90;2.67;;;;;;;;;;4903227;29;20043;-88
2023/06/14 06:16:53;;;;;;;9.07;2.33;;;;;;;;;;4917372;29;20042;-89
2023/06/14 06:19:37;;;;;;;5.97;3.00;;;;;;;;;;4917188;29;20090;-88
2023/06/14 06:22:22;;;;;;;6.32;2.75;;;;;;;;;;4917313;29;20047;-88
2023/06/14 06:25:07;;;;;;;7.13;2.45;;;;;;;;;;4903185;29;20095;-88
2023/06/14 06:27:54;;;;;;;7.93;2.95;;;;;;;;;;4903032;29;20048;-87
2023/06/14 06:30:39;;;;;;;5.60;2.50;;;;;;;;;;4902531;29;20064;-88
2023/06/14 06:33:24;;;;;;;5.18;2.80;;;;;;;;;;4902773;29;20047;-88
2023/06/14 06:36:09;;;;;;;5.20;2.20;;;;;;;;;;4902592;29;20496;-88
2023/06/14 06:38:54;;;;;;;8.57;2.30;;;;;;;;;;4916432;29;20048;-88
2023/06/14 06:41:39;;;;;;;3.78;2.38;;;;;;;;;;4902103;29;20067;-88
2023/06/14 06:44:24;;;;;;;4.32;2.47;;;;;;;;;;4902462;29;20109;-88
2023/06/14 06:47:11;;;;;;;5.18;2.13;;;;;;;;;;4902182;29;20064;-90
2023/06/14 06:49:55;;;;;;;8.15;2.60;;;;;;;;;;4889514;29;20095;-88
2023/06/14 06:52:40;;;;;;;3.72;2.20;;;;;;;;;;4916374;29;20521;-89
2023/06/14 06:55:24;;;;;;;5.63;2.40;;;;;;;;;;4916438;29;20071;-89
2023/06/14 06:58:10;;;;;;;7.40;2.53;;;;;;;;;;4902485;29;20047;-89
2023/06/14 07:00:54;;;;;;;4.80;2.20;;;;;;;;;;4902147;29;20039;-89
2023/06/14 07:03:38;;;;;;;4.90;2.00;;;;;;;;;;4888609;29;20140;-88
2023/06/14 07:06:27;;;;;;;8.80;2.83;;;;;;;;;;4902466;29;20552;-88
2023/06/14 07:09:13;;;;;;;5.63;2.30;;;;;;;;;;4889568;29;20124;-88
2023/06/14 07:11:58;;;;;;;4.18;2.00;;;;;;;;;;4902272;29;20039;-88
2023/06/14 07:14:42;;;;;;;3.92;2.10;;;;;;;;;;4901829;29;20050;-89
2023/06/14 07:17:27;;;;;;;6.00;2.50;;;;;;;;;;4902186;29;20075;-88
2023/06/14 07:20:12;;;;;;;8.23;2.65;;;;;;;;;;4889080;29;20129;-89
2023/06/14 07:22:57;;;;;;;7.43;1.80;;;;;;;;;;4901699;29;20465;-88
2023/06/14 07:25:41;;;;;;;4.00;2.30;;;;;;;;;;4916370;29;20100;-89
2023/06/14 07:28:26;;;;;;;4.90;2.03;;;;;;;;;;4916242;29;20469;-89
2023/06/14 07:31:10;;;;;;;6.20;2.00;;;;;;;;;;4888779;29;20062;-88
2023/06/14 07:33:55;;;;;;;4.88;2.17;;;;;;;;;;4916018;29;20667;-89
2023/06/14 07:36:39;;;;;;;10.27;2.40;;;;;;;;;;4915975;29;20412;-88
2023/06/14 07:39:24;;;;;;;6.00;2.00;;;;;;;;;;4901958;29;20099;-88
2023/06/14 07:42:08;;;;;;;9.38;2.17;;;;;;;;;;4901619;29;20104;-88
2023/06/14 07:44:53;;;;;;;6.70;2.75;;;;;;;;;;4914722;29;20088;-89
2023/06/14 07:47:38;;;;;;;6.28;2.08;;;;;;;;;;4915668;29;20047;-91
2023/06/14 07:50:23;;;;;;;7.45;2.67;;;;;;;;;;4918644;29;20443;-89
2023/06/14 07:53:08;;;;;;;4.20;1.60;;;;;;;;;;4919633;29;20488;-91
2023/06/14 07:55:52;;;;;;;3.95;2.00;;;;;;;;;;4918177;29;20441;-89
2023/06/14 07:58:37;;;;;;;6.50;1.80;;;;;;;;;;4919257;29;20050;-91
2023/06/14 08:01:24;;;;;;;3.25;2.28;;;;;;;;;;4918287;29;20043;-88
2023/06/14 08:04:09;;;;;;;5.18;1.98;;;;;;;;;;4919084;29;20096;-88
2023/06/14 08:06:54;;;;;;;5.25;1.90;;;;;;;;;;4891651;29;20079;-87
2023/06/14 08:09:38;;;;;;;4.20;2.10;;;;;;;;;;4919217;29;20496;-91
2023/06/14 08:12:23;;;;;;;3.08;1.75;;;;;;;;;;4891756;29;20072;-90
2023/06/14 08:15:08;;;;;;;9.00;1.80;;;;;;;;;;4918032;29;20047;-87
2023/06/14 08:17:52;;;;;;;6.00;2.10;;;;;;;;;;4918795;29;20499;-88
2023/06/14 08:20:37;;;;;;;6.28;2.03;;;;;;;;;;4891606;29;20560;-88
2023/06/14 08:23:22;;;;;;;4.63;1.70;;;;;;;;;;4918719;29;20099;-88
2023/06/14 08:26:06;;;;;;;4.32;1.83;;;;;;;;;;4904557;29;20072;-89
2023/06/14 08:28:50;;;;;;;4.60;2.15;;;;;;;;;;4918542;29;20068;-88
2023/06/14 08:31:35;;;;;;;6.38;1.98;;;;;;;;;;4917655;29;20139;-89
2023/06/14 08:34:20;;;;;;;2.97;1.70;;;;;;;;;;4904625;29;20051;-89
2023/06/14 08:37:06;;;;;;;4.13;1.80;;;;;;;;;;4904222;29;20068;-89
2023/06/14 08:39:51;;;;;;;4.03;1.83;;;;;;;;;;4890840;29;20488;-88
2023/06/14 08:42:37;;;;;;;6.85;1.50;;;24.40;63.60;;;;;;4891227;29;20104;-88
2023/06/14 08:45:23;;;;;;;3.92;1.83;;;;;;;;;;4904099;29;20063;-88
2023/06/14 08:48:09;;;;;;;6.32;1.77;;;;;;;;;;4917460;29;20039;-88
2023/06/14 08:51:01;;;;;;;7.20;1.90;;;;;;;;;;4918131;29;20076;-88
2023/06/14 08:53:46;;;;;;;5.75;1.90;;;;;;;;;;4918032;29;20514;-90
2023/06/14 08:56:33;;;;;;;5.72;2.30;;;;;;;;;;4904033;29;20047;-88
2023/06/14 08:59:18;;;;;;;3.88;1.65;;;;;;;;;;4918186;29;20051;-89
2023/06/14 09:02:03;;;;;;;7.80;2.38;;;;;;;;;;4890302;29;20052;-88
2023/06/14 09:04:49;;;;;;;4.85;1.80;;;;;;;;;;4916670;29;20096;-88
2023/06/14 09:07:34;;;;;;;2.65;1.50;;;;;;;;;;4916909;29;20104;-87
2023/06/14 09:10:18;;;;;;;3.95;1.80;;;;;;;;;;4917914;29;20046;-88
2023/06/14 09:13:04;;;;;;;4.65;1.70;;;;;;;;;;4903373;29;20122;-88
2023/06/14 09:15:48;;;;;;;5.97;1.60;;;;;;;;;;4917653;29;20484;-88
2023/06/14 09:18:37;;;;;;;8.10;1.90;;;;;;;;;;4903773;29;20075;-89
2023/06/14 09:21:22;;;;;;;6.40;1.95;;;;;;;;;;4917884;29;20083;-88
2023/06/14 09:24:06;;;;;;;5.93;1.63;;;;;;;;;;4916562;29;20082;-89
2023/06/14 09:26:51;;;;;;;6.70;1.98;;;;;;;;;;4917549;29;20051;-88
2023/06/14 09:29:36;;;;;;;3.78;1.88;;;;;;;;;;4916729;29;20043;-88
2023/06/14 09:32:21;;;;;;;7.10;1.77;;;25.20;56.30;;;;;;4916619;29;20042;-88
2023/06/14 09:35:07;;;;;;;3.47;1.58;;;;;;;;;;4917259;29;20594;-89
2023/06/14 09:37:55;;;;;;;5.15;1.67;;;;;;;;;;4917085;29;20039;-88
2023/06/14 09:40:40;;;;;;;5.35;1.90;;;;;;;;;;4917200;29;20067;-88
2023/06/14 09:43:27;;;;;;;5.68;2.28;;;;;;;;;;4903053;29;20092;-89
2023/06/14 09:46:11;;;;;;;4.22;1.58;;;;;;;;;;4916969;29;20401;-90
2023/06/14 09:48:56;;;;;;;4.70;1.70;;;;;;;;;;4917307;29;20038;-91
2023/06/14 09:51:45;;;;;;;6.35;1.80;;;;;;;;;;4917195;29;20038;-90
2023/06/14 09:54:31;;;;;;;3.22;1.70;;;;;;;;;;4917174;29;20408;-90
2023/06/14 09:57:17;;;;;;;4.78;1.60;;;25.60;54.90;;;;;;4902578;29;20051;-90
2023/06/14 10:00:06;;;;;;;3.78;1.85;;;;;;;;;;4916635;29;20044;-91
2023/06/14 10:02:54;;;;;;;5.95;2.00;;;;;;;;;;4902664;29;20040;-87
2023/06/14 10:05:40;;;;;;;2.80;1.55;;;;;;;;;;4917642;29;20043;-89
2023/06/14 10:08:27;;;;;;;4.88;1.70;;;25.60;54.80;;;;;;4904886;29;20096;-87
2023/06/14 10:11:13;;;;;;;4.55;1.63;;;;;;;;;;4902331;29;20127;-87
2023/06/14 10:13:59;;;;;;;8.55;1.75;;;;;;;;;;4903419;29;20043;-87
2023/06/14 10:17:01;;;;;;;4.75;1.70;;;;;;;;;;4917159;29;20488;-88
2023/06/14 10:19:53;;;;;;;3.40;1.90;;;;;;;;;;4916886;29;20114;-86
2023/06/14 10:22:58;;;;;;;3.03;1.73;;;25.90;52.80;;;;;;4916797;29;20442;-89
2023/06/14 10:25:43;;;;;;;3.30;1.35;;;;;;;;;;4916663;29;20465;-85
2023/06/14 10:28:30;;;;;;;3.75;1.60;;;;;;;;;;4902317;29;20042;-88
2023/06/14 10:31:16;;;;;;;4.07;1.58;;;;;;;;;;4916535;29;20581;-88
2023/06/14 10:34:01;;;;;;;2.60;1.50;;;;;;;;;;4916159;29;20090;-89
2023/06/14 10:36:45;;;;;;;3.60;1.50;;;;;;;;;;4902126;29;20078;-88
2023/06/14 10:39:30;;;;;;;3.00;1.50;;;;;;;;;;4889297;29;20086;-89
2023/06/14 10:42:15;;;;;;;3.13;1.30;;;;;;;;;;4896054;29;20666;-88
2023/06/14 10:45:01;;;;;;;4.55;1.50;;;;;;;;;;4897049;29;20466;-88
2023/06/14 10:47:52;;;;;;;3.90;1.50;;;;;;;;;;4883493;29;20055;-90
2023/06/14 10:50:37;;;;;;;2.33;1.13;;;;;;;;;;4898236;29;20039;-90
2023/06/14 10:53:23;;;;;;;3.60;1.30;;;;;;;;;;4883075;29;20051;-90
2023/06/14 10:56:08;;;;;;;6.60;1.45;;;;;;;;;;4897059;29;20047;-88
2023/06/14 10:58:53;;;;;;;5.20;1.55;;;;;;;;;;4883160;29;20088;-89
2023/06/14 11:01:47;;;;;;;3.22;1.50;;;26.40;50.80;;;;;;4870099;29;20043;-91
2023/06/14 11:04:45;;;;;;;3.05;1.40;;;26.50;48.40;;;;;;4898278;29;20100;-89
2023/06/14 11:07:55;;;;;;;8.57;1.30;;;26.40;48.70;;;;;;4897585;29;20400;-87
2023/06/14 11:10:41;;;;;;;3.95;1.33;;;26.50;49.70;;;;;;4883363;29;20043;-88
2023/06/14 11:13:26;;;;;;;5.90;1.13;;;;;;;;;;4897314;29;20449;-89
2023/06/14 11:16:12;;;;;;;2.85;1.30;;;;;;;;;;4882911;29;20040;-88
2023/06/14 11:18:56;;;;;;;3.40;1.15;;;;;;;;;;4897394;29;20052;-87
2023/06/14 11:21:41;;;;;;;3.88;1.58;;;;;;;;;;4897690;29;20040;-86
2023/06/14 11:24:26;;;;;;;5.03;1.20;;;;;;;;;;4886406;29;20067;-88
2023/06/14 11:27:11;;;;;;;3.00;1.30;;;;;;;;;;4886419;29;20051;-88
2023/06/14 11:29:56;;;;;;;4.30;1.40;;;;;;;;;;4886832;29;20442;-88
2023/06/14 11:32:40;;;;;;;2.72;1.38;;;;;;;;;;4900924;29;20492;-88
2023/06/14 11:35:25;;;;;;;4.38;1.55;;;26.80;49.30;;;;;;4905997;29;20040;-88
2023/06/14 11:38:10;;;;;;;2.13;1.10;;;;;;;;;;4901670;29;20048;-88
2023/06/14 11:40:59;;;;;;;4.93;1.45;;;27.20;48.90;;;;;;4901445;29;20091;-87
2023/06/14 11:43:44;;;;;;;4.57;1.80;;;;;;;;;;4906675;29;20177;-88
2023/06/14 11:46:28;;;;;;;4.47;1.40;;;;;;;;;;4927116;29;20051;-88
2023/06/14 11:49:13;;;;;;;1.98;1.20;;;;;;;;;;4894591;29;20084;-89
2023/06/14 11:51:57;;;;;;;2.75;1.55;;;;;;;;;;4920145;29;20047;-89
2023/06/14 11:54:42;;;;;;;3.35;1.55;;;;;;;;;;4892183;29;20095;-89
2023/06/14 11:57:26;;;;;;;4.13;1.70;;;;;;;;;;4919212;29;20047;-90
2023/06/14 12:00:17;;;;;;;5.25;1.55;;;;;;;;;;4919139;29;20060;-90
2023/06/14 12:03:03;;;;;;;5.00;1.38;;;;;;;;;;4919768;29;20043;-91
2023/06/14 12:05:47;;;;;;;3.13;1.25;;;;;;;;;;4919758;29;20134;-91
2023/06/14 12:08:39;;;;;;;5.88;1.80;;;26.20;77.40;;;;;;4919063;29;20104;-90
2023/06/14 12:11:24;;;;;;;5.55;1.52;;;;;;;;;;4904462;29;20147;-92
2023/06/14 12:14:10;;;;;;;5.47;1.58;;;27.10;47.50;;;;;;4918562;29;20047;-90
2023/06/14 12:17:04;;;;;;;4.45;1.30;;;;;;;;;;4919031;29;20115;-90
2023/06/14 12:19:49;;;;;;;4.32;1.50;;;;;;;;;;4917911;29;20039;-90
2023/06/14 12:22:34;;;;;;;3.72;1.70;;;;;;;;;;4918732;29;20047;-90
2023/06/14 12:25:28;;;;;;;3.05;1.35;;;26.60;78.40;;;;;;4918288;29;20453;-90
2023/06/14 12:28:12;;;;;;;2.58;1.40;;;;;;;;;;4918280;29;20088;-90
2023/06/14 12:30:58;;;;;;;2.70;1.30;;;;;;;;;;4917734;29;20070;-91
2023/06/14 12:33:45;;;;;;;6.95;1.40;;;;;;;;;;4904566;29;20560;-90
2023/06/14 12:36:31;;;;;;;5.78;1.42;;;;;;;;;;4916886;29;20126;-90
2023/06/14 12:39:18;;;;;;;3.53;1.92;;;27.20;46.90;;;;;;4918090;29;20063;-90
2023/06/14 12:42:04;;;;;;;5.88;1.70;;;;;;;;;;4918436;29;20079;-90
2023/06/14 12:44:48;;;;;;;3.08;1.30;;;;;;;;;;4891220;29;20081;-90
2023/06/14 12:47:33;;;;;;;4.97;1.95;;;;;;;;;;4918060;29;20079;-91
2023/06/14 12:50:17;;;;;;;4.72;1.65;;;;;;;;;;4918212;29;20512;-92
2023/06/14 12:53:02;;;;;;;2.25;1.30;;;;;;;;;;4918277;29;20047;-90
2023/06/14 12:55:46;;;;;;;4.93;1.58;;;;;;;;;;4904407;29;20088;-89
2023/06/14 12:58:30;;;;;;;2.75;1.50;;;;;;;;;;4917996;29;20043;-90
2023/06/14 13:01:21;;;;;;;2.33;1.25;;;;;;;;;;4903750;29;20087;-93
2023/06/14 13:04:06;;;;;;;2.40;1.40;;;;;;;;;;4918462;29;20409;-92
2023/06/14 13:06:51;;;;;;;3.67;1.63;;;;;;;;;;4918024;29;20051;-91
2023/06/14 13:09:35;;;;;;;3.35;1.65;;;;;;;;;;4917756;29;20507;-90
2023/06/14 13:12:20;;;;;;;2.45;1.27;;;;;;;;;;4917615;29;20396;-91
2023/06/14 13:15:08;;;;;;;4.15;1.60;;;;;;;;;;4917848;29;20059;-89
2023/06/14 13:17:53;;;;;;;2.58;1.25;;;;;;;;;;4918094;29;20086;-89
2023/06/14 13:20:37;;;;;;;2.97;1.50;;;;;;;;;;4916544;29;20043;-89
2023/06/14 13:23:22;;;;;;;2.75;1.40;;;;;;;;;;4902939;29;20058;-89
2023/06/14 13:26:06;;;;;;;3.30;1.45;;;;;;;;;;4916595;29;20039;-90
2023/06/14 13:28:52;;;;;;;3.17;1.45;;;;;;;;;;4917776;29;20520;-91
2023/06/14 13:31:37;;;;;;;2.75;1.40;;;;;;;;;;4917657;29;20106;-91
2023/06/14 13:34:21;;;;;;;3.88;1.70;;;;;;;;;;4917225;29;20105;-90
2023/06/14 13:37:06;;;;;;;3.50;1.30;;;;;;;;;;4917591;29;20047;-90
2023/06/14 13:39:50;;;;;;;2.63;1.42;;;;;;;;;;4916360;29;20071;-89
2023/06/14 13:42:35;;;;;;;2.55;1.33;;;;;;;;;;4916438;29;20060;-90
2023/06/14 13:45:20;;;;;;;5.68;1.30;;;;;;;;;;4916991;29;20050;-88
2023/06/14 13:48:04;;;;;;;4.25;1.50;;;;;;;;;;4902899;29;20063;-89
2023/06/14 13:50:49;;;;;;;4.63;1.67;;;;;;;;;;4917247;29;20041;-89
2023/06/14 13:53:34;;;;;;;3.03;1.20;;;;;;;;;;4902567;29;20051;-90
2023/06/14 13:56:19;;;;;;;5.18;1.40;;;;;;;;;;4889460;29;20039;-92
2023/06/14 13:59:04;;;;;;;4.18;1.60;;;;;;;;;;4917179;29;20128;-93
2023/06/14 14:01:48;;;;;;;3.72;1.48;;;;;;;;;;4916966;29;20099;-90
2023/06/14 14:04:35;;;;;;;2.75;1.30;;;;;;;;;;4916456;29;20130;-91
2023/06/14 14:07:20;;;;;;;6.00;1.73;;;;;;;;;;4916636;29;20038;-92
2023/06/14 14:10:05;;;;;;;5.85;1.40;;;;;;;;;;4902589;29;20039;-89
2023/06/14 14:12:50;;;;;;;3.08;1.40;;;;;;;;;;4916849;29;20095;-89
2023/06/14 14:15:35;;;;;;;4.72;1.35;;;;;;;;;;4902321;29;20046;-91
2023/06/14 14:18:20;;;;;;;4.95;1.50;;;;;;;;;;4902608;29;20405;-90
2023/06/14 14:21:09;;;;;;;2.97;1.50;;;;;;;;;;4902915;29;20044;-90
2023/06/14 14:23:55;;;;;;;2.40;1.40;;;;;;;;;;4902275;29;20060;-91
2023/06/14 14:26:41;;;;;;;4.25;1.50;;;;;;;;;;4916289;29;20361;-90
2023/06/14 14:29:28;;;;;;;3.13;1.55;;;;;;;;;;4915365;29;20068;-88
2023/06/14 14:32:14;;;;;;;2.92;1.33;;;;;;;;;;4915621;29;20060;-89
2023/06/14 14:34:59;;;;;;;2.58;1.50;;;;;;;;;;4916519;29;20087;-88
2023/06/14 14:37:44;;;;;;;2.88;1.50;;;;;;;;;;4915307;29;20099;-88
2023/06/14 14:40:28;;;;;;;4.05;1.55;;;;;;;;;;4901850;29;20108;-89
2023/06/14 14:43:13;;;;;;;2.35;1.45;;;;;;;;;;4915244;29;20111;-89
2023/06/14 14:45:58;;;;;;;3.20;1.42;;;;;;;;;;4916344;29;20134;-88
2023/06/14 14:48:42;;;;;;;4.32;1.52;;;;;;;;;;4915041;29;20039;-89
2023/06/14 14:51:27;;;;;;;2.60;1.40;;;;;;;;;;4916113;29;20047;-89
2023/06/14 14:54:12;;;;;;;4.35;1.50;;;;;;;;;;4916312;29;20060;-93
2023/06/14 14:56:56;;;;;;;3.08;1.40;;;;;;;;;;4916307;29;20063;-88
2023/06/14 14:59:41;;;;;;;3.13;1.45;;;;;;;;;;4915299;29;20087;-88
2023/06/14 15:02:25;;;;;;;2.88;1.50;;;;;;;;;;4916137;29;20043;-90
2023/06/14 15:05:10;;;;;;;6.30;1.40;;;;;;;;;;4916260;29;20051;-88
2023/06/14 15:07:54;;;;;;;5.05;1.33;;;;;;;;;;4916146;29;20441;-88
2023/06/14 15:10:41;;;;;;;4.20;1.73;;;;;;;;;;4914772;29;20176;-88
2023/06/14 15:13:25;;;;;;;3.03;1.77;;;;;;;;;;4915095;29;20600;-88
2023/06/14 15:16:10;;;;;;;3.75;1.40;;;;;;;;;;4916284;29;20496;-88
2023/06/14 15:18:54;;;;;;;5.18;1.65;;;;;;;;;;4916343;29;20461;-90
2023/06/14 15:21:39;;;;;;;2.85;1.30;;;;;;;;;;4914893;29;20108;-88
2023/06/14 15:24:24;;;;;;;3.28;1.80;;;;;;;;;;4915971;29;20096;-86
2023/06/14 15:27:08;;;;;;;4.70;1.63;;;;;;;;;;4916177;29;20050;-88
2023/06/14 15:29:53;;;;;;;4.65;1.75;;;;;;;;;;4915645;29;20040;-88
2023/06/14 15:32:37;;;;;;;3.20;1.60;;;;;;;;;;4915601;29;20055;-90
2023/06/14 15:35:22;;;;;;;3.03;1.58;;;;;;;;;;4915941;29;20183;-87
2023/06/14 15:38:06;;;;;;;2.67;1.58;;;;;;;;;;4915910;29;20127;-87
2023/06/14 15:40:51;;;;;;;6.93;1.50;;;;;;;;;;4915513;29;20039;-87
2023/06/14 15:43:35;;;;;;;2.78;1.30;;;;;;;;;;4927425;29;20082;-88
2023/06/14 15:46:23;;;;;;;4.65;1.77;;;;;;;;;;4936751;29;20058;-89
2023/06/14 15:49:11;;;;;;;4.32;1.33;;;;;;;;;;4934738;29;20062;-89
2023/06/14 15:51:57;;;;;;;4.32;1.50;;;;;;;;;;4934629;29;20043;-89
2023/06/14 15:54:41;;;;;;;4.82;1.80;;;;;;;;;;4934241;29;20046;-90
2023/06/14 15:57:26;;;;;;;4.80;1.73;;;;;;;;;;4934305;29;20062;-90
2023/06/14 16:00:11;;;;;;;5.38;2.05;;;;;;;;;;4933821;29;20082;-90
2023/06/14 16:02:55;;;;;;;4.18;1.70;;;;;;;;;;4920119;29;20047;-90
2023/06/14 16:05:40;;;;;;;3.35;1.75;;;;;;;;;;4934270;29;20050;-89
2023/06/14 16:08:25;;;;;;;3.33;1.65;;;;;;;;;;4934655;29;20055;-88
2023/06/14 16:11:09;;;;;;;4.05;1.67;;;;;;;;;;4936860;29;20063;-90
2023/06/14 16:13:55;;;;;;;4.25;1.65;;;;;;;;;;4936626;29;20487;-90
2023/06/14 16:16:40;;;;;;;4.40;1.80;;;;;;;;;;4936475;29;20109;-90
2023/06/14 16:19:24;;;;;;;3.75;1.67;;;;;;;;;;4937777;29;20047;-90
2023/06/14 16:22:09;;;;;;;4.32;1.60;;;;;;;;;;4937779;29;20444;-92
2023/06/14 16:24:53;;;;;;;2.50;1.52;;;;;;;;;;4921599;29;20102;-88
2023/06/14 16:27:38;;;;;;;4.22;1.67;;;;;;;;;;4922642;29;20046;-89